sensor_id;sensor_type;location;lat;lon;timestamp;P1;durP1;ratioP1;P2;durP2;ratioP2
35380;SDS011;21486;51.916;8.378;2024-01-30T01:33:02;27.20;;;14.07;;
35380;SDS011;21486;51.916;8.378;2024-01-30T01:35:28;25.83;;;14.20;;
35380;SDS011;21486;51.916;8.378;2024-01-30T01:37:53;26.80;;;14.70;;
35380;SDS011;21486;51.916;8.378;2024-01-30T01:40:25;24.52;;;14.25;;
35380;SDS011;21486;51.916;8.378;2024-01-30T01:42:51;25.35;;;13.55;;
35380;SDS011;21486;51.916;8.378;2024-01-30T01:45:18;25.73;;;13.73;;
35380;SDS011;21486;51.916;8.378;2024-01-30T01:47:44;22.45;;;13.48;;
35380;SDS011;21486;51.916;8.378;2024-01-30T01:50:13;22.58;;;12.90;;
35380;SDS011;21486;51.916;8.378;2024-01-30T01:52:48;24.52;;;13.18;;
35380;SDS011;21486;51.916;8.378;2024-01-30T01:55:15;23.90;;;13.03;;
35380;SDS011;21486;51.916;8.378;2024-01-30T01:57:43;25.42;;;13.45;;
35380;SDS011;21486;51.916;8.378;2024-01-30T02:00:09;23.97;;;12.87;;
35380;SDS011;21486;51.916;8.378;2024-01-30T02:02:36;21.48;;;12.68;;
35380;SDS011;21486;51.916;8.378;2024-01-30T02:05:04;20.80;;;12.50;;
35380;SDS011;21486;51.916;8.378;2024-01-30T02:07:29;27.92;;;13.38;;
35380;SDS011;21486;51.916;8.378;2024-01-30T02:09:55;22.80;;;12.20;;
35380;SDS011;21486;51.916;8.378;2024-01-30T02:12:21;20.48;;;12.27;;
35380;SDS011;21486;51.916;8.378;2024-01-30T02:14:49;21.83;;;11.90;;
35380;SDS011;21486;51.916;8.378;2024-01-30T02:17:15;25.88;;;12.32;;
35380;SDS011;21486;51.916;8.378;2024-01-30T02:19:41;23.17;;;12.10;;
35380;SDS011;21486;51.916;8.378;2024-01-30T02:22:07;20.20;;;12.07;;
35380;SDS011;21486;51.916;8.378;2024-01-30T02:24:34;21.58;;;11.77;;
35380;SDS011;21486;51.916;8.378;2024-01-30T02:26:59;22.33;;;12.07;;
35380;SDS011;21486;51.916;8.378;2024-01-30T02:29:25;22.00;;;11.70;;
35380;SDS011;21486;51.916;8.378;2024-01-30T02:31:50;24.67;;;12.35;;
35380;SDS011;21486;51.916;8.378;2024-01-30T02:34:18;24.23;;;12.60;;
35380;SDS011;21486;51.916;8.378;2024-01-30T02:36:44;22.33;;;12.23;;
35380;SDS011;21486;51.916;8.378;2024-01-30T02:39:10;22.42;;;12.25;;
35380;SDS011;21486;51.916;8.378;2024-01-30T02:41:35;20.90;;;11.77;;
35380;SDS011;21486;51.916;8.378;2024-01-30T02:44:01;22.30;;;12.93;;
35380;SDS011;21486;51.916;8.378;2024-01-30T02:46:28;20.20;;;11.45;;
35380;SDS011;21486;51.916;8.378;2024-01-30T02:48:53;23.77;;;13.23;;
35380;SDS011;21486;51.916;8.378;2024-01-30T02:51:19;22.33;;;11.90;;
35380;SDS011;21486;51.916;8.378;2024-01-30T02:53:44;23.67;;;12.67;;
35380;SDS011;21486;51.916;8.378;2024-01-30T02:56:10;18.60;;;11.50;;
35380;SDS011;21486;51.916;8.378;2024-01-30T02:58:36;21.70;;;12.00;;
35380;SDS011;21486;51.916;8.378;2024-01-30T03:01:02;20.52;;;11.68;;
35380;SDS011;21486;51.916;8.378;2024-01-30T03:03:28;21.65;;;12.30;;
35380;SDS011;21486;51.916;8.378;2024-01-30T03:05:53;21.42;;;12.32;;
35380;SDS011;21486;51.916;8.378;2024-01-30T03:08:19;21.50;;;12.35;;
35380;SDS011;21486;51.916;8.378;2024-01-30T03:10:46;21.50;;;11.93;;
35380;SDS011;21486;51.916;8.378;2024-01-30T03:13:11;20.50;;;12.43;;
35380;SDS011;21486;51.916;8.378;2024-01-30T03:15:37;23.88;;;13.10;;
35380;SDS011;21486;51.916;8.378;2024-01-30T03:18:02;22.23;;;13.00;;
35380;SDS011;21486;51.916;8.378;2024-01-30T03:20:31;23.05;;;12.55;;
35380;SDS011;21486;51.916;8.378;2024-01-30T03:22:56;23.80;;;11.93;;
35380;SDS011;21486;51.916;8.378;2024-01-30T03:25:24;19.85;;;12.02;;
35380;SDS011;21486;51.916;8.378;2024-01-30T03:27:50;21.03;;;11.97;;
35380;SDS011;21486;51.916;8.378;2024-01-30T03:30:16;22.53;;;12.20;;
35380;SDS011;21486;51.916;8.378;2024-01-30T03:32:42;25.60;;;12.07;;
35380;SDS011;21486;51.916;8.378;2024-01-30T03:35:08;20.90;;;11.70;;
35380;SDS011;21486;51.916;8.378;2024-01-30T03:37:33;20.08;;;11.40;;
35380;SDS011;21486;51.916;8.378;2024-01-30T03:39:59;24.40;;;13.07;;
35380;SDS011;21486;51.916;8.378;2024-01-30T03:42:24;23.00;;;12.50;;
35380;SDS011;21486;51.916;8.378;2024-01-30T03:44:50;19.33;;;11.93;;
35380;SDS011;21486;51.916;8.378;2024-01-30T03:47:20;20.60;;;11.40;;
35380;SDS011;21486;51.916;8.378;2024-01-30T03:49:45;21.95;;;11.50;;
35380;SDS011;21486;51.916;8.378;2024-01-30T03:52:11;22.17;;;12.50;;
35380;SDS011;21486;51.916;8.378;2024-01-30T03:54:37;19.75;;;11.93;;
35380;SDS011;21486;51.916;8.378;2024-01-30T03:57:02;23.98;;;12.40;;
35380;SDS011;21486;51.916;8.378;2024-01-30T03:59:28;24.88;;;12.73;;
35380;SDS011;21486;51.916;8.378;2024-01-30T04:01:54;24.25;;;12.63;;
35380;SDS011;21486;51.916;8.378;2024-01-30T04:04:20;22.50;;;12.13;;
35380;SDS011;21486;51.916;8.378;2024-01-30T04:06:45;21.88;;;12.43;;
35380;SDS011;21486;51.916;8.378;2024-01-30T04:09:12;22.42;;;12.63;;
35380;SDS011;21486;51.916;8.378;2024-01-30T04:11:38;23.00;;;12.68;;
35380;SDS011;21486;51.916;8.378;2024-01-30T04:14:04;25.13;;;12.60;;
35380;SDS011;21486;51.916;8.378;2024-01-30T04:16:29;21.30;;;11.68;;
35380;SDS011;21486;51.916;8.378;2024-01-30T04:18:55;20.50;;;11.60;;
35380;SDS011;21486;51.916;8.378;2024-01-30T04:21:21;19.52;;;11.30;;
35380;SDS011;21486;51.916;8.378;2024-01-30T04:23:47;21.35;;;11.15;;
35380;SDS011;21486;51.916;8.378;2024-01-30T04:26:13;19.70;;;11.73;;
35380;SDS011;21486;51.916;8.378;2024-01-30T04:28:40;23.03;;;11.63;;
35380;SDS011;21486;51.916;8.378;2024-01-30T04:31:06;20.43;;;11.87;;
35380;SDS011;21486;51.916;8.378;2024-01-30T04:33:32;19.83;;;11.53;;
35380;SDS011;21486;51.916;8.378;2024-01-30T04:35:57;24.67;;;12.53;;
35380;SDS011;21486;51.916;8.378;2024-01-30T04:38:23;21.98;;;12.13;;
35380;SDS011;21486;51.916;8.378;2024-01-30T04:40:49;23.10;;;12.10;;
35380;SDS011;21486;51.916;8.378;2024-01-30T04:43:14;22.87;;;12.37;;
35380;SDS011;21486;51.916;8.378;2024-01-30T04:45:40;21.85;;;11.98;;
35380;SDS011;21486;51.916;8.378;2024-01-30T04:48:06;23.23;;;12.30;;
35380;SDS011;21486;51.916;8.378;2024-01-30T04:50:32;21.35;;;11.68;;
35380;SDS011;21486;51.916;8.378;2024-01-30T04:52:57;20.00;;;12.07;;
35380;SDS011;21486;51.916;8.378;2024-01-30T04:55:23;24.05;;;12.30;;
35380;SDS011;21486;51.916;8.378;2024-01-30T04:57:49;20.42;;;11.98;;
35380;SDS011;21486;51.916;8.378;2024-01-30T05:00:14;22.60;;;12.73;;
35380;SDS011;21486;51.916;8.378;2024-01-30T05:02:40;19.63;;;12.40;;
35380;SDS011;21486;51.916;8.378;2024-01-30T05:05:06;21.05;;;12.25;;
35380;SDS011;21486;51.916;8.378;2024-01-30T05:07:32;25.63;;;12.73;;
35380;SDS011;21486;51.916;8.378;2024-01-30T05:09:58;25.83;;;12.88;;
35380;SDS011;21486;51.916;8.378;2024-01-30T05:12:24;23.10;;;13.02;;
35380;SDS011;21486;51.916;8.378;2024-01-30T05:14:50;23.00;;;12.68;;
35380;SDS011;21486;51.916;8.378;2024-01-30T05:17:15;26.70;;;14.40;;
35380;SDS011;21486;51.916;8.378;2024-01-30T05:19:42;24.53;;;12.77;;
35380;SDS011;21486;51.916;8.378;2024-01-30T05:22:08;27.80;;;13.43;;
35380;SDS011;21486;51.916;8.378;2024-01-30T05:24:34;26.42;;;13.40;;
35380;SDS011;21486;51.916;8.378;2024-01-30T05:27:00;26.10;;;14.40;;
35380;SDS011;21486;51.916;8.378;2024-01-30T05:29:26;23.77;;;12.73;;
35380;SDS011;21486;51.916;8.378;2024-01-30T05:31:52;24.95;;;14.07;;
35380;SDS011;21486;51.916;8.378;2024-01-30T05:34:17;23.40;;;13.43;;
35380;SDS011;21486;51.916;8.378;2024-01-30T05:36:43;28.53;;;14.07;;
35380;SDS011;21486;51.916;8.378;2024-01-30T05:39:08;25.20;;;13.20;;
35380;SDS011;21486;51.916;8.378;2024-01-30T05:41:35;22.75;;;13.55;;
35380;SDS011;21486;51.916;8.378;2024-01-30T05:44:00;27.77;;;15.17;;
35380;SDS011;21486;51.916;8.378;2024-01-30T05:46:26;25.23;;;13.93;;
35380;SDS011;21486;51.916;8.378;2024-01-30T05:48:51;25.60;;;13.60;;
35380;SDS011;21486;51.916;8.378;2024-01-30T05:51:17;22.70;;;12.35;;
35380;SDS011;21486;51.916;8.378;2024-01-30T05:53:42;24.57;;;12.70;;
35380;SDS011;21486;51.916;8.378;2024-01-30T05:56:08;24.03;;;12.87;;
35380;SDS011;21486;51.916;8.378;2024-01-30T05:58:33;24.77;;;12.63;;
35380;SDS011;21486;51.916;8.378;2024-01-30T06:00:59;28.98;;;13.10;;
35380;SDS011;21486;51.916;8.378;2024-01-30T06:03:25;25.08;;;13.15;;
35380;SDS011;21486;51.916;8.378;2024-01-30T06:05:50;23.25;;;12.48;;
35380;SDS011;21486;51.916;8.378;2024-01-30T06:08:17;26.10;;;13.10;;
35380;SDS011;21486;51.916;8.378;2024-01-30T06:10:43;25.48;;;12.55;;
35380;SDS011;21486;51.916;8.378;2024-01-30T06:13:08;24.55;;;12.57;;
35380;SDS011;21486;51.916;8.378;2024-01-30T06:15:34;27.90;;;12.97;;
35380;SDS011;21486;51.916;8.378;2024-01-30T06:17:59;22.53;;;12.37;;
35380;SDS011;21486;51.916;8.378;2024-01-30T06:20:25;27.63;;;12.47;;
35380;SDS011;21486;51.916;8.378;2024-01-30T06:22:50;24.55;;;12.95;;
35380;SDS011;21486;51.916;8.378;2024-01-30T06:25:16;20.80;;;12.73;;
35380;SDS011;21486;51.916;8.378;2024-01-30T06:27:42;22.75;;;12.15;;
35380;SDS011;21486;51.916;8.378;2024-01-30T06:30:08;20.48;;;12.23;;
35380;SDS011;21486;51.916;8.378;2024-01-30T06:32:35;21.75;;;11.80;;
35380;SDS011;21486;51.916;8.378;2024-01-30T06:35:01;23.27;;;11.45;;
35380;SDS011;21486;51.916;8.378;2024-01-30T06:37:27;22.33;;;11.73;;
35380;SDS011;21486;51.916;8.378;2024-01-30T06:39:52;22.60;;;11.83;;
35380;SDS011;21486;51.916;8.378;2024-01-30T06:42:18;18.80;;;11.27;;
35380;SDS011;21486;51.916;8.378;2024-01-30T06:44:43;24.77;;;12.67;;
35380;SDS011;21486;51.916;8.378;2024-01-30T06:47:09;27.13;;;12.03;;
35380;SDS011;21486;51.916;8.378;2024-01-30T06:49:35;26.57;;;12.23;;
35380;SDS011;21486;51.916;8.378;2024-01-30T06:52:04;26.33;;;12.63;;
35380;SDS011;21486;51.916;8.378;2024-01-30T06:54:30;23.75;;;11.93;;
35380;SDS011;21486;51.916;8.378;2024-01-30T06:56:56;27.27;;;13.93;;
35380;SDS011;21486;51.916;8.378;2024-01-30T06:59:21;29.58;;;14.43;;
35380;SDS011;21486;51.916;8.378;2024-01-30T07:01:47;21.63;;;12.38;;
35380;SDS011;21486;51.916;8.378;2024-01-30T07:04:13;31.57;;;15.50;;
35380;SDS011;21486;51.916;8.378;2024-01-30T07:06:38;25.07;;;14.13;;
35380;SDS011;21486;51.916;8.378;2024-01-30T07:09:04;27.25;;;13.93;;
35380;SDS011;21486;51.916;8.378;2024-01-30T07:11:30;26.45;;;12.80;;
35380;SDS011;21486;51.916;8.378;2024-01-30T07:13:56;23.75;;;12.43;;
35380;SDS011;21486;51.916;8.378;2024-01-30T07:16:21;25.23;;;12.90;;
35380;SDS011;21486;51.916;8.378;2024-01-30T07:18:48;24.15;;;13.35;;
35380;SDS011;21486;51.916;8.378;2024-01-30T07:21:14;27.40;;;13.07;;
35380;SDS011;21486;51.916;8.378;2024-01-30T07:23:40;23.63;;;12.82;;
35380;SDS011;21486;51.916;8.378;2024-01-30T07:26:07;23.02;;;13.23;;
35380;SDS011;21486;51.916;8.378;2024-01-30T07:28:33;22.45;;;12.35;;
35380;SDS011;21486;51.916;8.378;2024-01-30T07:30:59;25.52;;;12.25;;
35380;SDS011;21486;51.916;8.378;2024-01-30T07:33:25;22.23;;;12.40;;
35380;SDS011;21486;51.916;8.378;2024-01-30T07:35:54;25.48;;;11.73;;
35380;SDS011;21486;51.916;8.378;2024-01-30T07:38:20;23.52;;;11.50;;
35380;SDS011;21486;51.916;8.378;2024-01-30T07:40:45;20.93;;;11.77;;
35380;SDS011;21486;51.916;8.378;2024-01-30T07:43:11;22.47;;;11.90;;
35380;SDS011;21486;51.916;8.378;2024-01-30T07:45:37;22.83;;;12.10;;
35380;SDS011;21486;51.916;8.378;2024-01-30T07:48:03;20.55;;;11.35;;
35380;SDS011;21486;51.916;8.378;2024-01-30T07:50:30;22.95;;;12.27;;
35380;SDS011;21486;51.916;8.378;2024-01-30T07:52:56;23.40;;;12.50;;
35380;SDS011;21486;51.916;8.378;2024-01-30T07:55:22;21.90;;;12.10;;
35380;SDS011;21486;51.916;8.378;2024-01-30T07:57:51;24.35;;;11.60;;
35380;SDS011;21486;51.916;8.378;2024-01-30T08:00:17;26.52;;;12.02;;
35380;SDS011;21486;51.916;8.378;2024-01-30T08:02:44;27.45;;;12.05;;
35380;SDS011;21486;51.916;8.378;2024-01-30T08:05:10;22.70;;;12.57;;
35380;SDS011;21486;51.916;8.378;2024-01-30T08:07:36;21.67;;;11.95;;
35380;SDS011;21486;51.916;8.378;2024-01-30T08:10:02;22.20;;;11.63;;
35380;SDS011;21486;51.916;8.378;2024-01-30T08:12:27;21.58;;;12.15;;
35380;SDS011;21486;51.916;8.378;2024-01-30T08:14:53;24.55;;;13.43;;
35380;SDS011;21486;51.916;8.378;2024-01-30T08:17:18;21.83;;;12.40;;
35380;SDS011;21486;51.916;8.378;2024-01-30T08:19:44;25.67;;;11.77;;
35380;SDS011;21486;51.916;8.378;2024-01-30T08:22:09;23.63;;;11.85;;
35380;SDS011;21486;51.916;8.378;2024-01-30T08:24:36;24.42;;;11.43;;
35380;SDS011;21486;51.916;8.378;2024-01-30T08:27:02;24.90;;;11.23;;
35380;SDS011;21486;51.916;8.378;2024-01-30T08:29:28;24.40;;;11.88;;
35380;SDS011;21486;51.916;8.378;2024-01-30T08:31:53;24.70;;;11.03;;
35380;SDS011;21486;51.916;8.378;2024-01-30T08:34:20;19.95;;;11.05;;
35380;SDS011;21486;51.916;8.378;2024-01-30T08:36:46;21.65;;;11.07;;
35380;SDS011;21486;51.916;8.378;2024-01-30T08:39:11;22.07;;;10.93;;
35380;SDS011;21486;51.916;8.378;2024-01-30T08:41:37;21.23;;;10.37;;
35380;SDS011;21486;51.916;8.378;2024-01-30T08:44:02;19.30;;;10.63;;
35380;SDS011;21486;51.916;8.378;2024-01-30T08:46:29;19.63;;;9.95;;
35380;SDS011;21486;51.916;8.378;2024-01-30T08:48:55;18.15;;;10.65;;
35380;SDS011;21486;51.916;8.378;2024-01-30T08:51:21;20.80;;;10.18;;
35380;SDS011;21486;51.916;8.378;2024-01-30T08:53:47;18.42;;;10.23;;
35380;SDS011;21486;51.916;8.378;2024-01-30T08:56:12;19.42;;;10.00;;
35380;SDS011;21486;51.916;8.378;2024-01-30T08:58:38;22.35;;;10.93;;
35380;SDS011;21486;51.916;8.378;2024-01-30T09:01:04;22.13;;;10.15;;
35380;SDS011;21486;51.916;8.378;2024-01-30T09:03:30;24.38;;;10.82;;
35380;SDS011;21486;51.916;8.378;2024-01-30T09:05:56;22.35;;;10.18;;
35380;SDS011;21486;51.916;8.378;2024-01-30T09:08:22;17.40;;;9.70;;
35380;SDS011;21486;51.916;8.378;2024-01-30T09:10:47;21.43;;;9.83;;
35380;SDS011;21486;51.916;8.378;2024-01-30T09:13:14;16.67;;;8.23;;
35380;SDS011;21486;51.916;8.378;2024-01-30T09:15:40;19.88;;;9.30;;
35380;SDS011;21486;51.916;8.378;2024-01-30T09:18:06;17.50;;;7.82;;
35380;SDS011;21486;51.916;8.378;2024-01-30T09:20:32;17.42;;;8.35;;
35380;SDS011;21486;51.916;8.378;2024-01-30T09:22:58;13.65;;;7.78;;
35380;SDS011;21486;51.916;8.378;2024-01-30T09:25:23;16.10;;;8.33;;
35380;SDS011;21486;51.916;8.378;2024-01-30T09:27:49;21.20;;;8.53;;
35380;SDS011;21486;51.916;8.378;2024-01-30T09:30:14;12.82;;;7.45;;
35380;SDS011;21486;51.916;8.378;2024-01-30T09:32:40;14.13;;;7.60;;
35380;SDS011;21486;51.916;8.378;2024-01-30T09:35:05;14.53;;;7.40;;
35380;SDS011;21486;51.916;8.378;2024-01-30T09:37:31;16.60;;;8.17;;
35380;SDS011;21486;51.916;8.378;2024-01-30T09:39:57;15.47;;;8.03;;
35380;SDS011;21486;51.916;8.378;2024-01-30T09:42:35;14.50;;;7.77;;
35380;SDS011;21486;51.916;8.378;2024-01-30T09:45:02;13.43;;;7.82;;
35380;SDS011;21486;51.916;8.378;2024-01-30T09:47:32;17.70;;;8.07;;
35380;SDS011;21486;51.916;8.378;2024-01-30T09:50:04;14.53;;;7.70;;
35380;SDS011;21486;51.916;8.378;2024-01-30T09:52:31;17.30;;;8.20;;
35380;SDS011;21486;51.916;8.378;2024-01-30T09:54:57;15.88;;;8.27;;
35380;SDS011;21486;51.916;8.378;2024-01-30T09:57:25;16.70;;;8.43;;
35380;SDS011;21486;51.916;8.378;2024-01-30T09:59:51;15.50;;;8.18;;
35380;SDS011;21486;51.916;8.378;2024-01-30T10:02:19;15.93;;;8.60;;
35380;SDS011;21486;51.916;8.378;2024-01-30T10:04:47;18.65;;;8.40;;
35380;SDS011;21486;51.916;8.378;2024-01-30T10:07:14;11.98;;;7.55;;
35380;SDS011;21486;51.916;8.378;2024-01-30T10:09:40;14.07;;;7.82;;
35380;SDS011;21486;51.916;8.378;2024-01-30T10:12:06;15.77;;;8.10;;
35380;SDS011;21486;51.916;8.378;2024-01-30T10:14:32;12.65;;;7.53;;
35380;SDS011;21486;51.916;8.378;2024-01-30T10:16:58;14.57;;;8.30;;
35380;SDS011;21486;51.916;8.378;2024-01-30T10:19:24;14.73;;;7.47;;
35380;SDS011;21486;51.916;8.378;2024-01-30T10:21:49;17.23;;;8.00;;
35380;SDS011;21486;51.916;8.378;2024-01-30T10:24:15;15.53;;;7.90;;
35380;SDS011;21486;51.916;8.378;2024-01-30T10:26:43;14.88;;;7.85;;
35380;SDS011;21486;51.916;8.378;2024-01-30T10:29:09;16.80;;;7.80;;
35380;SDS011;21486;51.916;8.378;2024-01-30T10:31:34;16.63;;;8.20;;
35380;SDS011;21486;51.916;8.378;2024-01-30T10:34:00;17.88;;;9.10;;
35380;SDS011;21486;51.916;8.378;2024-01-30T10:36:28;13.73;;;8.23;;
35380;SDS011;21486;51.916;8.378;2024-01-30T10:38:59;17.10;;;8.05;;
35380;SDS011;21486;51.916;8.378;2024-01-30T10:41:28;14.65;;;7.85;;
35380;SDS011;21486;51.916;8.378;2024-01-30T10:44:08;18.50;;;8.30;;
35380;SDS011;21486;51.916;8.378;2024-01-30T10:46:34;13.93;;;7.53;;
35380;SDS011;21486;51.916;8.378;2024-01-30T10:49:02;14.75;;;7.55;;
35380;SDS011;21486;51.916;8.378;2024-01-30T10:51:29;14.18;;;7.28;;
35380;SDS011;21486;51.916;8.378;2024-01-30T10:53:56;12.23;;;6.80;;
35380;SDS011;21486;51.916;8.378;2024-01-30T10:56:23;14.73;;;7.70;;
35380;SDS011;21486;51.916;8.378;2024-01-30T10:58:53;17.77;;;7.88;;
35380;SDS011;21486;51.916;8.378;2024-01-30T11:01:19;15.27;;;7.00;;
35380;SDS011;21486;51.916;8.378;2024-01-30T11:03:47;13.63;;;7.78;;
35380;SDS011;21486;51.916;8.378;2024-01-30T11:06:15;15.25;;;7.55;;
35380;SDS011;21486;51.916;8.378;2024-01-30T11:08:43;18.70;;;7.53;;
35380;SDS011;21486;51.916;8.378;2024-01-30T11:11:10;11.38;;;7.32;;
35380;SDS011;21486;51.916;8.378;2024-01-30T11:13:36;13.95;;;7.43;;
35380;SDS011;21486;51.916;8.378;2024-01-30T11:16:02;20.65;;;8.15;;
35380;SDS011;21486;51.916;8.378;2024-01-30T11:18:29;15.20;;;6.97;;
35380;SDS011;21486;51.916;8.378;2024-01-30T11:20:55;19.83;;;8.40;;
35380;SDS011;21486;51.916;8.378;2024-01-30T11:23:22;15.20;;;8.38;;
35380;SDS011;21486;51.916;8.378;2024-01-30T11:25:47;12.77;;;6.80;;
35380;SDS011;21486;51.916;8.378;2024-01-30T11:28:16;13.50;;;7.43;;
35380;SDS011;21486;51.916;8.378;2024-01-30T11:30:42;14.70;;;7.47;;
35380;SDS011;21486;51.916;8.378;2024-01-30T11:35:36;14.75;;;7.75;;
35380;SDS011;21486;51.916;8.378;2024-01-30T11:38:02;13.73;;;7.20;;
35380;SDS011;21486;51.916;8.378;2024-01-30T11:40:29;14.35;;;6.95;;
35380;SDS011;21486;51.916;8.378;2024-01-30T11:42:56;14.10;;;6.57;;
35380;SDS011;21486;51.916;8.378;2024-01-30T11:45:24;14.77;;;6.90;;
35380;SDS011;21486;51.916;8.378;2024-01-30T11:47:49;13.73;;;6.67;;
35380;SDS011;21486;51.916;8.378;2024-01-30T11:50:15;18.70;;;6.97;;
35380;SDS011;21486;51.916;8.378;2024-01-30T11:52:41;13.40;;;6.80;;
35380;SDS011;21486;51.916;8.378;2024-01-30T11:55:08;16.73;;;7.40;;
35380;SDS011;21486;51.916;8.378;2024-01-30T11:57:34;12.15;;;7.20;;
35380;SDS011;21486;51.916;8.378;2024-01-30T12:00:02;17.17;;;8.43;;
35380;SDS011;21486;51.916;8.378;2024-01-30T12:02:35;22.30;;;10.57;;
35380;SDS011;21486;51.916;8.378;2024-01-30T12:05:07;17.98;;;8.13;;
35380;SDS011;21486;51.916;8.378;2024-01-30T12:07:34;11.88;;;7.13;;
35380;SDS011;21486;51.916;8.378;2024-01-30T12:10:00;15.10;;;7.22;;
35380;SDS011;21486;51.916;8.378;2024-01-30T12:12:26;12.98;;;7.10;;
35380;SDS011;21486;51.916;8.378;2024-01-30T12:14:52;12.52;;;7.00;;
35380;SDS011;21486;51.916;8.378;2024-01-30T12:17:29;13.90;;;7.35;;
35380;SDS011;21486;51.916;8.378;2024-01-30T12:20:05;13.25;;;6.78;;
35380;SDS011;21486;51.916;8.378;2024-01-30T12:22:32;15.55;;;6.93;;
35380;SDS011;21486;51.916;8.378;2024-01-30T12:25:02;11.10;;;6.35;;
35380;SDS011;21486;51.916;8.378;2024-01-30T12:27:28;13.50;;;7.20;;
35380;SDS011;21486;51.916;8.378;2024-01-30T12:29:57;11.47;;;6.47;;
35380;SDS011;21486;51.916;8.378;2024-01-30T12:32:23;16.27;;;6.70;;
35380;SDS011;21486;51.916;8.378;2024-01-30T12:34:49;14.20;;;6.50;;
35380;SDS011;21486;51.916;8.378;2024-01-30T12:37:14;13.32;;;6.45;;
35380;SDS011;21486;51.916;8.378;2024-01-30T12:39:47;11.88;;;6.75;;
35380;SDS011;21486;51.916;8.378;2024-01-30T12:42:13;16.75;;;7.05;;
35380;SDS011;21486;51.916;8.378;2024-01-30T12:44:39;16.25;;;7.32;;
35380;SDS011;21486;51.916;8.378;2024-01-30T12:47:05;23.45;;;7.30;;
35380;SDS011;21486;51.916;8.378;2024-01-30T12:49:31;12.43;;;6.60;;
35380;SDS011;21486;51.916;8.378;2024-01-30T12:51:56;12.10;;;7.00;;
35380;SDS011;21486;51.916;8.378;2024-01-30T12:54:23;15.13;;;6.75;;
35380;SDS011;21486;51.916;8.378;2024-01-30T12:56:49;14.87;;;6.60;;
35380;SDS011;21486;51.916;8.378;2024-01-30T12:59:14;13.77;;;6.60;;
35380;SDS011;21486;51.916;8.378;2024-01-30T13:01:41;15.30;;;6.95;;
35380;SDS011;21486;51.916;8.378;2024-01-30T13:04:06;14.20;;;6.70;;
35380;SDS011;21486;51.916;8.378;2024-01-30T13:06:32;15.40;;;6.82;;
35380;SDS011;21486;51.916;8.378;2024-01-30T13:08:57;14.77;;;6.93;;
35380;SDS011;21486;51.916;8.378;2024-01-30T13:11:23;12.13;;;6.97;;
35380;SDS011;21486;51.916;8.378;2024-01-30T13:13:50;14.13;;;7.18;;
35380;SDS011;21486;51.916;8.378;2024-01-30T13:16:16;13.10;;;6.80;;
35380;SDS011;21486;51.916;8.378;2024-01-30T13:18:42;12.48;;;6.68;;
35380;SDS011;21486;51.916;8.378;2024-01-30T13:21:08;14.97;;;6.97;;
35380;SDS011;21486;51.916;8.378;2024-01-30T13:23:34;18.60;;;7.17;;
35380;SDS011;21486;51.916;8.378;2024-01-30T13:25:59;16.42;;;6.63;;
35380;SDS011;21486;51.916;8.378;2024-01-30T13:28:25;14.60;;;6.67;;
35380;SDS011;21486;51.916;8.378;2024-01-30T13:30:51;13.77;;;6.70;;
35380;SDS011;21486;51.916;8.378;2024-01-30T13:33:17;17.00;;;7.22;;
35380;SDS011;21486;51.916;8.378;2024-01-30T13:35:42;18.60;;;7.80;;
35380;SDS011;21486;51.916;8.378;2024-01-30T13:38:08;21.05;;;7.80;;
35380;SDS011;21486;51.916;8.378;2024-01-30T13:40:34;18.93;;;7.37;;
35380;SDS011;21486;51.916;8.378;2024-01-30T13:42:59;16.83;;;7.40;;
35380;SDS011;21486;51.916;8.378;2024-01-30T13:45:25;26.17;;;8.43;;
35380;SDS011;21486;51.916;8.378;2024-01-30T13:47:50;34.83;;;9.07;;
35380;SDS011;21486;51.916;8.378;2024-01-30T13:50:16;19.92;;;7.97;;
35380;SDS011;21486;51.916;8.378;2024-01-30T13:52:42;16.77;;;7.27;;
35380;SDS011;21486;51.916;8.378;2024-01-30T13:55:08;18.80;;;8.10;;
35380;SDS011;21486;51.916;8.378;2024-01-30T13:57:35;17.33;;;7.50;;
35380;SDS011;21486;51.916;8.378;2024-01-30T14:00:02;18.88;;;7.40;;
35380;SDS011;21486;51.916;8.378;2024-01-30T14:02:31;20.10;;;7.90;;
35380;SDS011;21486;51.916;8.378;2024-01-30T14:04:57;19.85;;;8.00;;
35380;SDS011;21486;51.916;8.378;2024-01-30T14:07:22;16.93;;;8.00;;
35380;SDS011;21486;51.916;8.378;2024-01-30T14:09:48;17.17;;;8.37;;
35380;SDS011;21486;51.916;8.378;2024-01-30T14:12:14;19.87;;;8.07;;
35380;SDS011;21486;51.916;8.378;2024-01-30T14:14:40;15.23;;;7.53;;
35380;SDS011;21486;51.916;8.378;2024-01-30T14:17:05;17.98;;;7.40;;
35380;SDS011;21486;51.916;8.378;2024-01-30T14:19:34;18.10;;;7.33;;
35380;SDS011;21486;51.916;8.378;2024-01-30T14:22:00;17.63;;;7.75;;
35380;SDS011;21486;51.916;8.378;2024-01-30T14:24:26;10.60;;;6.73;;
35380;SDS011;21486;51.916;8.378;2024-01-30T14:26:52;20.47;;;7.33;;
35380;SDS011;21486;51.916;8.378;2024-01-30T14:29:18;14.10;;;7.30;;
35380;SDS011;21486;51.916;8.378;2024-01-30T14:31:43;15.32;;;7.43;;
35380;SDS011;21486;51.916;8.378;2024-01-30T14:34:09;15.80;;;7.60;;
35380;SDS011;21486;51.916;8.378;2024-01-30T14:36:36;17.13;;;7.57;;
35380;SDS011;21486;51.916;8.378;2024-01-30T14:39:02;17.85;;;7.18;;
35380;SDS011;21486;51.916;8.378;2024-01-30T14:41:28;15.48;;;7.18;;
35380;SDS011;21486;51.916;8.378;2024-01-30T14:43:54;15.82;;;7.03;;
35380;SDS011;21486;51.916;8.378;2024-01-30T14:46:20;16.75;;;7.95;;
35380;SDS011;21486;51.916;8.378;2024-01-30T14:48:46;15.32;;;7.70;;
35380;SDS011;21486;51.916;8.378;2024-01-30T14:51:12;14.70;;;7.15;;
35380;SDS011;21486;51.916;8.378;2024-01-30T14:53:38;14.35;;;7.10;;
35380;SDS011;21486;51.916;8.378;2024-01-30T14:56:04;15.40;;;7.45;;
35380;SDS011;21486;51.916;8.378;2024-01-30T14:58:30;15.98;;;7.57;;
35380;SDS011;21486;51.916;8.378;2024-01-30T15:00:56;20.93;;;7.50;;
35380;SDS011;21486;51.916;8.378;2024-01-30T15:03:21;21.35;;;7.90;;
35380;SDS011;21486;51.916;8.378;2024-01-30T15:05:47;18.13;;;7.20;;
35380;SDS011;21486;51.916;8.378;2024-01-30T15:08:12;18.93;;;8.23;;
35380;SDS011;21486;51.916;8.378;2024-01-30T15:10:38;18.93;;;7.67;;
35380;SDS011;21486;51.916;8.378;2024-01-30T15:13:03;18.75;;;8.23;;
35380;SDS011;21486;51.916;8.378;2024-01-30T15:15:29;18.80;;;7.25;;
35380;SDS011;21486;51.916;8.378;2024-01-30T15:17:55;18.88;;;7.28;;
35380;SDS011;21486;51.916;8.378;2024-01-30T15:20:21;15.85;;;7.97;;
35380;SDS011;21486;51.916;8.378;2024-01-30T15:22:47;18.38;;;7.75;;
35380;SDS011;21486;51.916;8.378;2024-01-30T15:25:13;18.73;;;7.80;;
35380;SDS011;21486;51.916;8.378;2024-01-30T15:27:39;18.02;;;7.60;;
35380;SDS011;21486;51.916;8.378;2024-01-30T15:30:05;16.33;;;8.48;;
35380;SDS011;21486;51.916;8.378;2024-01-30T15:32:31;18.25;;;8.40;;
35380;SDS011;21486;51.916;8.378;2024-01-30T15:34:57;19.60;;;9.30;;
35380;SDS011;21486;51.916;8.378;2024-01-30T15:37:26;23.67;;;8.80;;
35380;SDS011;21486;51.916;8.378;2024-01-30T15:39:52;22.42;;;9.05;;
35380;SDS011;21486;51.916;8.378;2024-01-30T15:42:18;21.83;;;8.85;;
35380;SDS011;21486;51.916;8.378;2024-01-30T15:44:43;16.37;;;8.93;;
35380;SDS011;21486;51.916;8.378;2024-01-30T15:47:09;23.07;;;9.27;;
35380;SDS011;21486;51.916;8.378;2024-01-30T15:49:34;17.10;;;8.77;;
35380;SDS011;21486;51.916;8.378;2024-01-30T15:52:00;20.38;;;9.00;;
35380;SDS011;21486;51.916;8.378;2024-01-30T15:54:25;19.87;;;8.47;;
35380;SDS011;21486;51.916;8.378;2024-01-30T15:56:51;20.97;;;8.50;;